createdAt,value
2023-02-02T00:00:58.864Z,99010.66
2023-02-02T00:03:31.759Z,98997.81
2023-02-02T00:06:04.439Z,98996.88
2023-02-02T00:08:38.553Z,99011.91
2023-02-02T00:11:10.607Z,98990.84
2023-02-02T00:13:42.591Z,99004.78
2023-02-02T00:16:29.642Z,99012.06
2023-02-02T00:19:07.746Z,99013.78
2023-02-02T00:21:39.922Z,99006.03
2023-02-02T00:24:14.137Z,99003.56
2023-02-02T00:26:53.889Z,99000.84
2023-02-02T00:29:31.215Z,98992.69
2023-02-02T00:32:03.086Z,98948.19
2023-02-02T00:34:35.030Z,99004.13
2023-02-02T00:37:07.210Z,98911.56
2023-02-02T00:39:39.143Z,98987.31
2023-02-02T00:42:13.943Z,99008.84
2023-02-02T00:45:04.372Z,98948.34
2023-02-02T00:47:36.536Z,98983.59
2023-02-02T00:50:09.414Z,98959.28
2023-02-02T00:52:41.775Z,98959.75
2023-02-02T00:55:14.989Z,98981.78
2023-02-02T00:57:47.025Z,98967.72
2023-02-02T01:00:23.996Z,98995.88
2023-02-02T01:02:57.363Z,98993.84
2023-02-02T01:05:29.373Z,98930.94
2023-02-02T01:08:01.942Z,98995.31
2023-02-02T01:10:34.627Z,98974.09
2023-02-02T01:13:06.617Z,98993.00
2023-02-02T01:15:38.725Z,99000.72
2023-02-02T01:18:10.796Z,98995.88
2023-02-02T01:20:43.198Z,98934.41
2023-02-02T01:23:15.155Z,98986.31
2023-02-02T01:25:47.117Z,98934.66
2023-02-02T01:28:19.060Z,98994.41
2023-02-02T01:30:51.332Z,99000.66
2023-02-02T01:33:24.344Z,99000.66
2023-02-02T01:35:56.875Z,98973.84
2023-02-02T01:38:28.747Z,98990.59
2023-02-02T01:41:01.403Z,98993.16
2023-02-02T01:43:45.646Z,98989.19
2023-02-02T01:46:19.835Z,98987.44
2023-02-02T01:49:03.996Z,98989.59
2023-02-02T01:51:57.156Z,98965.81
2023-02-02T01:54:35.066Z,98983.56
2023-02-02T01:57:15.838Z,98960.38
2023-02-02T01:59:48.168Z,98979.50
2023-02-02T02:02:20.744Z,98957.06
2023-02-02T02:04:53.136Z,98977.22
2023-02-02T02:07:25.105Z,98981.25
2023-02-02T02:09:57.646Z,98984.16
2023-02-02T02:12:29.664Z,98954.78
2023-02-02T02:15:20.180Z,98952.31
2023-02-02T02:18:00.972Z,98985.00
2023-02-02T02:20:57.785Z,98987.22
2023-02-02T02:24:24.308Z,98964.53
2023-02-02T02:27:14.689Z,98990.19
2023-02-02T02:30:07.573Z,98965.50
2023-02-02T02:33:00.869Z,98964.53
2023-02-02T02:35:47.182Z,98985.97
2023-02-02T02:38:36.412Z,98975.00
2023-02-02T02:41:18.192Z,98980.03
2023-02-02T02:44:08.017Z,99003.97
2023-02-02T02:46:40.169Z,98991.19
2023-02-02T02:49:14.110Z,99000.25
2023-02-02T02:51:54.509Z,98996.41
2023-02-02T02:54:33.609Z,99005.59
2023-02-02T02:57:32.959Z,99001.16
2023-02-02T03:00:45.884Z,98995.88
2023-02-02T03:03:20.678Z,99001.16
2023-02-02T03:06:21.868Z,99003.91
2023-02-02T03:09:05.272Z,98998.44
2023-02-02T03:11:37.615Z,98992.59
2023-02-02T03:14:10.047Z,98977.25
2023-02-02T03:16:42.033Z,98986.72
2023-02-02T03:19:13.987Z,98993.97
2023-02-02T03:21:46.021Z,98993.66
2023-02-02T03:24:18.148Z,99005.28
2023-02-02T03:26:50.916Z,98980.84
2023-02-02T03:29:23.140Z,99002.72
2023-02-02T03:31:55.307Z,98977.31
2023-02-02T03:34:27.236Z,98972.00
2023-02-02T03:36:59.234Z,98991.91
2023-02-02T03:39:31.185Z,99009.88
2023-02-02T03:42:03.239Z,98980.56
2023-02-02T03:44:35.262Z,98925.16
2023-02-02T03:47:07.244Z,98995.06
2023-02-02T03:49:39.208Z,99002.59
2023-02-02T03:52:11.519Z,98998.31
2023-02-02T03:54:43.418Z,99002.75
2023-02-02T03:57:15.366Z,98995.75
2023-02-02T03:59:47.383Z,98993.41
2023-02-02T04:02:19.321Z,99011.31
2023-02-02T04:04:51.367Z,99008.34
2023-02-02T04:07:23.338Z,98998.22
2023-02-02T04:09:55.299Z,98990.44
2023-02-02T04:12:27.423Z,99006.13
2023-02-02T04:14:59.363Z,98973.47
2023-02-02T04:17:31.412Z,98980.06
2023-02-02T04:20:05.468Z,99000.25
2023-02-02T04:22:37.452Z,99003.75
2023-02-02T04:25:09.570Z,98963.53
2023-02-02T04:27:41.542Z,98995.88
2023-02-02T04:30:13.603Z,98962.44
2023-02-02T04:32:45.734Z,98990.28
2023-02-02T04:35:17.734Z,98958.94
2023-02-02T04:37:49.722Z,99008.09
2023-02-02T04:40:21.678Z,99004.78
2023-02-02T04:42:53.671Z,99008.78
2023-02-02T04:45:26.142Z,98977.34
2023-02-02T04:47:58.368Z,98992.66
2023-02-02T04:50:30.695Z,99000.09
2023-02-02T04:53:04.032Z,98998.69
2023-02-02T04:55:39.273Z,99022.69
2023-02-02T04:58:11.187Z,98954.81
2023-02-02T05:00:43.253Z,99005.13
2023-02-02T05:03:15.191Z,98986.34
2023-02-02T05:05:47.633Z,99018.09
2023-02-02T05:08:19.647Z,99014.88
2023-02-02T05:10:51.586Z,99019.53
2023-02-02T05:13:23.593Z,98989.16
2023-02-02T05:15:55.749Z,99001.00
2023-02-02T05:18:27.764Z,99017.56
2023-02-02T05:21:01.703Z,99000.25
2023-02-02T05:23:33.637Z,99030.13
2023-02-02T05:26:05.595Z,99015.75
2023-02-02T05:28:37.520Z,99027.91
2023-02-02T05:31:10.254Z,99033.75
2023-02-02T05:33:42.320Z,98980.00
2023-02-02T05:36:14.360Z,99016.91
2023-02-02T05:38:46.308Z,99010.41
2023-02-02T05:41:18.238Z,98995.78
2023-02-02T05:43:50.157Z,99023.00
2023-02-02T05:46:22.109Z,99026.28
2023-02-02T05:48:54.120Z,99036.84
2023-02-02T05:51:32.449Z,99003.75
2023-02-02T05:54:04.386Z,99021.00
2023-02-02T05:56:36.339Z,99018.31
2023-02-02T05:59:08.493Z,99002.88
2023-02-02T06:01:40.438Z,99024.19
2023-02-02T06:04:12.512Z,99026.69
2023-02-02T06:06:44.755Z,99029.94
2023-02-02T06:09:16.692Z,99017.56
2023-02-02T06:11:48.559Z,99008.34
2023-02-02T06:14:20.556Z,99036.00
2023-02-02T06:16:52.448Z,99036.09
2023-02-02T06:19:24.460Z,99019.34
2023-02-02T06:21:56.434Z,99031.97
2023-02-02T06:24:28.394Z,99029.97
2023-02-02T06:27:00.317Z,99019.34
2023-02-02T06:29:32.285Z,99026.84
2023-02-02T06:32:04.499Z,99023.81
2023-02-02T06:34:36.465Z,99029.59
2023-02-02T06:37:08.411Z,99029.16
2023-02-02T06:39:40.370Z,99026.13
2023-02-02T06:42:21.444Z,99013.38
2023-02-02T06:44:53.905Z,99012.38
2023-02-02T06:47:26.994Z,99014.78
2023-02-02T06:49:58.907Z,99016.06
2023-02-02T06:52:30.899Z,99000.88
2023-02-02T06:55:02.828Z,98978.72
2023-02-02T06:57:34.711Z,98991.81
2023-02-02T07:00:07.392Z,99015.00
2023-02-02T07:02:39.577Z,99015.00
2023-02-02T07:05:11.767Z,98993.66
2023-02-02T07:07:43.715Z,99015.75
2023-02-02T07:11:11.224Z,99025.81
2023-02-02T07:13:07.965Z,98994.09
2023-02-02T07:15:40.860Z,98955.94
2023-02-02T07:18:12.855Z,99009.63
2023-02-02T07:20:44.784Z,98927.28
2023-02-02T07:23:17.017Z,98975.63
2023-02-02T07:25:48.930Z,98983.03
2023-02-02T07:28:20.907Z,99009.31
2023-02-02T07:30:53.003Z,99006.69
2023-02-02T07:33:25.203Z,99016.75
2023-02-02T07:35:57.147Z,99009.16
2023-02-02T07:38:29.032Z,98998.91
2023-02-02T07:41:02.079Z,99010.41
2023-02-02T07:43:34.122Z,98993.84
2023-02-02T07:46:10.328Z,99017.13
2023-02-02T07:48:42.626Z,99009.88
2023-02-02T07:51:18.429Z,99004.19
2023-02-02T07:53:53.281Z,99005.28
2023-02-02T07:56:28.773Z,99002.72
2023-02-02T07:59:00.804Z,98963.94
2023-02-02T08:01:33.257Z,98997.25
2023-02-02T08:04:05.324Z,98984.63
2023-02-02T08:06:39.950Z,98996.03
2023-02-02T08:09:11.950Z,98993.78
2023-02-02T08:11:43.907Z,98944.44
2023-02-02T08:14:15.911Z,98988.91
2023-02-02T08:16:47.911Z,98995.13
2023-02-02T08:19:19.857Z,98999.81
2023-02-02T08:21:51.804Z,98999.63
2023-02-02T08:24:23.772Z,98998.16
2023-02-02T08:26:55.725Z,98923.81
2023-02-02T08:29:27.767Z,98980.13
2023-02-02T08:32:00.635Z,98981.41
2023-02-02T08:34:35.150Z,98989.66
2023-02-02T08:37:07.089Z,98995.78
2023-02-02T08:39:39.249Z,99005.94
2023-02-02T08:42:11.544Z,99014.56
2023-02-02T08:45:59.450Z,99006.13
2023-02-02T08:47:35.489Z,98992.13
2023-02-02T08:50:07.791Z,99006.50
2023-02-02T08:52:39.740Z,99006.31
2023-02-02T08:55:12.097Z,99006.59
2023-02-02T08:57:44.066Z,98993.03
2023-02-02T09:00:16.596Z,99007.31
2023-02-02T09:02:52.020Z,99002.47
2023-02-02T09:05:24.415Z,99003.38
2023-02-02T09:07:56.573Z,99014.44
2023-02-02T09:10:28.791Z,99007.50
2023-02-02T09:13:00.768Z,99012.00
2023-02-02T09:15:33.219Z,98999.81
2023-02-02T09:18:05.459Z,98994.47
2023-02-02T09:20:37.358Z,99012.63
2023-02-02T09:23:09.451Z,98981.84
2023-02-02T09:25:41.329Z,98973.44
2023-02-02T09:28:13.381Z,98994.69
2023-02-02T09:30:45.444Z,98993.56
2023-02-02T09:33:17.334Z,99002.56
2023-02-02T09:35:49.297Z,99011.25
2023-02-02T09:38:21.337Z,99022.34
2023-02-02T09:40:53.363Z,98994.66
2023-02-02T09:43:51.505Z,99020.56
2023-02-02T09:46:38.407Z,99013.03
2023-02-02T09:49:15.860Z,99000.94
2023-02-02T09:51:57.184Z,99013.06
2023-02-02T09:54:37.077Z,99027.00
2023-02-02T09:57:22.933Z,99021.78
2023-02-02T09:59:56.010Z,99034.34
2023-02-02T10:02:39.138Z,99017.13
2023-02-02T10:05:20.373Z,99007.59
2023-02-02T10:07:56.688Z,99046.72
2023-02-02T10:10:35.832Z,99031.13
2023-02-02T10:13:17.377Z,99045.88
2023-02-02T10:16:03.973Z,99038.28
2023-02-02T10:18:36.011Z,99058.03
2023-02-02T10:21:16.861Z,99056.81
2023-02-02T10:23:48.945Z,99058.03
2023-02-02T10:26:22.165Z,99048.13
2023-02-02T10:29:07.681Z,99054.78
2023-02-02T10:32:10.619Z,99078.50
2023-02-02T10:35:11.039Z,99069.28
2023-02-02T10:38:18.683Z,99082.50
2023-02-02T10:41:07.148Z,99081.97
2023-02-02T10:44:02.644Z,99087.38
2023-02-02T10:46:39.919Z,99070.41
2023-02-02T10:49:34.824Z,99085.69
2023-02-02T10:52:18.895Z,99095.06
2023-02-02T10:55:19.544Z,99069.59
2023-02-02T10:58:10.059Z,99087.66
2023-02-02T11:00:53.529Z,99108.75
2023-02-02T11:03:29.288Z,99100.03
2023-02-02T11:06:25.890Z,99082.63
2023-02-02T11:09:00.718Z,99113.97
2023-02-02T11:11:48.160Z,99110.88
2023-02-02T11:14:44.571Z,99124.16
2023-02-02T11:17:23.303Z,99108.25
2023-02-02T11:19:56.485Z,99101.47
2023-02-02T11:22:39.408Z,99116.91
2023-02-02T11:25:37.105Z,99138.59
2023-02-02T11:28:32.285Z,99142.78
2023-02-02T11:31:04.426Z,99121.50
2023-02-02T11:33:36.683Z,99143.78
2023-02-02T11:36:20.707Z,99136.53
2023-02-02T11:39:17.291Z,99161.34
2023-02-02T11:41:49.220Z,99136.47
2023-02-02T11:44:26.733Z,99171.78
2023-02-02T11:47:00.890Z,99113.94
2023-02-02T11:49:39.140Z,99145.00
2023-02-02T11:52:21.260Z,99186.25
2023-02-02T11:55:02.443Z,99128.91
2023-02-02T11:57:34.360Z,99170.13
2023-02-02T12:00:09.289Z,99193.28
2023-02-02T12:02:47.249Z,99191.19
2023-02-02T12:05:36.106Z,99202.69
2023-02-02T12:08:11.756Z,99208.13
2023-02-02T12:10:59.163Z,99227.56
2023-02-02T12:13:40.040Z,99225.84
2023-02-02T12:16:22.801Z,99222.28
2023-02-02T12:19:15.062Z,99232.13
2023-02-02T12:22:11.580Z,99242.19
2023-02-02T12:24:57.874Z,99238.81
2023-02-02T12:27:51.332Z,99245.34
2023-02-02T12:30:58.580Z,99247.41
2023-02-02T12:33:41.985Z,99223.28
2023-02-02T12:36:43.337Z,99251.28
2023-02-02T12:39:18.345Z,99257.41
2023-02-02T12:42:05.985Z,99261.22
2023-02-02T12:44:53.731Z,99271.38
2023-02-02T12:48:01.031Z,99270.03
2023-02-02T12:50:57.391Z,99271.88
2023-02-02T12:53:29.341Z,99276.59
2023-02-02T12:56:46.358Z,99286.19
2023-02-02T12:59:24.367Z,99292.22
2023-02-02T13:02:25.458Z,99296.94
2023-02-02T13:08:18.254Z,99300.50
2023-02-02T13:10:56.131Z,99296.44
2023-02-02T13:13:36.882Z,99312.47
2023-02-02T13:16:14.071Z,99315.47
2023-02-02T13:19:12.826Z,99327.94
2023-02-02T13:21:45.717Z,99327.84
2023-02-02T13:24:25.280Z,99304.50
2023-02-02T13:27:01.422Z,99341.75
2023-02-02T13:29:47.329Z,99343.31
2023-02-02T13:32:34.668Z,99355.63
2023-02-02T13:35:34.519Z,99359.00
2023-02-02T13:38:15.132Z,99366.66
2023-02-02T13:40:47.998Z,99372.63
2023-02-02T13:43:44.848Z,99375.44
2023-02-02T13:46:39.603Z,99378.13
2023-02-02T13:49:18.108Z,99391.69
2023-02-02T13:51:59.008Z,99404.94
2023-02-02T13:54:55.377Z,99408.75
2023-02-02T13:57:48.929Z,99415.78
2023-02-02T14:00:29.730Z,99421.97
2023-02-02T14:03:06.408Z,99431.91
2023-02-02T14:05:41.621Z,99409.78
2023-02-02T14:08:22.354Z,99388.56
2023-02-02T14:10:54.316Z,99445.84
2023-02-02T14:13:56.336Z,99455.28
2023-02-02T14:16:34.053Z,99465.25
2023-02-02T14:19:09.200Z,99468.78
2023-02-02T14:21:41.019Z,99475.31
2023-02-02T14:24:37.971Z,99473.06
2023-02-02T14:27:10.082Z,99479.66
2023-02-02T14:29:46.711Z,99484.97
2023-02-02T14:32:25.245Z,99487.41
2023-02-02T14:34:58.514Z,99489.91
2023-02-02T14:37:42.241Z,99496.13
2023-02-02T14:40:20.009Z,99502.81
2023-02-02T14:43:50.036Z,99507.72
2023-02-02T14:46:35.083Z,99522.72
2023-02-02T14:49:13.680Z,99530.81
2023-02-02T14:51:58.396Z,99533.56
2023-02-02T14:54:42.644Z,99546.69
2023-02-02T14:57:26.307Z,99542.34
2023-02-02T15:00:01.176Z,99532.00
2023-02-02T15:02:36.972Z,99539.16
2023-02-02T15:05:39.259Z,99570.91
2023-02-02T15:08:20.677Z,99577.69
2023-02-02T15:10:56.946Z,99587.34
2023-02-02T15:13:37.934Z,99575.63
2023-02-02T15:16:23.190Z,99586.13
2023-02-02T15:19:17.219Z,99585.75
2023-02-02T15:21:51.887Z,99603.63
2023-02-02T15:24:27.622Z,99598.53
2023-02-02T15:27:01.157Z,99620.06
2023-02-02T15:29:43.084Z,99613.38
2023-02-02T15:32:22.659Z,99623.84
2023-02-02T15:34:59.747Z,99574.09
2023-02-02T15:37:43.656Z,99628.56
2023-02-02T15:40:20.943Z,99659.22
2023-02-02T15:42:58.836Z,99660.56
2023-02-02T15:45:52.594Z,99671.94
2023-02-02T15:48:32.837Z,99677.25
2023-02-02T15:51:14.347Z,99683.34
2023-02-02T15:53:49.705Z,99693.88
2023-02-02T15:56:30.748Z,99697.28
2023-02-02T15:59:02.907Z,99711.69
2023-02-02T16:01:47.429Z,99717.25
2023-02-02T16:04:26.802Z,99703.56
2023-02-02T16:06:58.972Z,99747.31
2023-02-02T16:09:35.679Z,99746.09
2023-02-02T16:12:20.154Z,99759.28
2023-02-02T16:14:55.229Z,99749.03
2023-02-02T16:17:32.772Z,99751.53
2023-02-02T16:20:11.540Z,99752.78
2023-02-02T16:22:46.750Z,99786.38
2023-02-02T16:25:23.229Z,99763.84
2023-02-02T16:27:56.318Z,99774.72
2023-02-02T16:30:31.429Z,99802.50
2023-02-02T16:33:31.607Z,99811.00
2023-02-02T16:36:26.570Z,99831.06
2023-02-02T16:39:01.340Z,99793.00
2023-02-02T16:41:34.752Z,99846.47
2023-02-02T16:44:37.575Z,99844.69
2023-02-02T16:47:30.770Z,99846.31
2023-02-02T16:50:08.745Z,99854.00
2023-02-02T16:52:57.387Z,99854.28
2023-02-02T16:55:47.959Z,99832.31
2023-02-02T16:58:24.878Z,99865.75
2023-02-02T17:01:16.086Z,99865.63
2023-02-02T17:03:54.346Z,99871.44
2023-02-02T17:06:45.535Z,99854.88
2023-02-02T17:09:33.132Z,99871.63
2023-02-02T17:12:33.160Z,99871.91
2023-02-02T17:15:18.630Z,99907.97
2023-02-02T17:17:52.290Z,99903.47
2023-02-02T17:20:25.178Z,99902.88
2023-02-02T17:23:01.902Z,99907.09
2023-02-02T17:25:38.331Z,99910.13
2023-02-02T17:28:19.017Z,99909.00
2023-02-02T17:31:02.409Z,99907.97
2023-02-02T17:33:35.884Z,99927.84
2023-02-02T17:36:08.655Z,99926.53
2023-02-02T17:38:40.787Z,99937.19
2023-02-02T17:41:14.526Z,99905.47
2023-02-02T17:43:46.487Z,99938.31
2023-02-02T17:46:18.412Z,99892.84
2023-02-02T17:48:50.388Z,99959.44
2023-02-02T17:51:22.329Z,99945.44
2023-02-02T17:53:57.959Z,99929.53
2023-02-02T17:56:29.904Z,99963.22
2023-02-02T17:59:01.860Z,99963.81
2023-02-02T18:01:38.276Z,99987.66
2023-02-02T18:04:13.359Z,99984.28
2023-02-02T18:06:45.307Z,99984.53
2023-02-02T18:09:17.487Z,99973.09
2023-02-02T18:11:50.064Z,99988.09
2023-02-02T18:14:22.017Z,99988.22
2023-02-02T18:16:53.950Z,100014.34
2023-02-02T18:19:25.847Z,100004.88
2023-02-02T18:21:57.770Z,100026.78
2023-02-02T18:24:29.757Z,100029.22
2023-02-02T18:27:01.691Z,100026.69
2023-02-02T18:29:33.681Z,100022.50
2023-02-02T18:32:05.826Z,100035.13
2023-02-02T18:34:37.881Z,100047.25
2023-02-02T18:37:10.378Z,100048.97
2023-02-02T18:39:42.309Z,100069.78
2023-02-02T18:42:14.992Z,100030.91
2023-02-02T18:44:46.913Z,100060.75
2023-02-02T18:47:18.899Z,100073.41
2023-02-02T18:49:50.817Z,100064.31
2023-02-02T18:52:22.782Z,100028.50
2023-02-02T18:54:54.800Z,100045.34
2023-02-02T18:57:30.598Z,100078.53
2023-02-02T19:00:03.546Z,100082.84
2023-02-02T19:02:35.663Z,100091.41
2023-02-02T19:05:26.488Z,100051.69
2023-02-02T19:07:59.443Z,100113.66
2023-02-02T19:10:32.331Z,100121.34
2023-02-02T19:13:19.602Z,100131.25
2023-02-02T19:15:51.837Z,100124.25
2023-02-02T19:18:24.694Z,100130.66
2023-02-02T19:20:56.554Z,100133.19
2023-02-02T19:23:32.562Z,100142.38
2023-02-02T19:26:23.168Z,100133.59
2023-02-02T19:29:03.078Z,100156.03
2023-02-02T19:31:35.045Z,100080.22
2023-02-02T19:34:13.110Z,100146.19
2023-02-02T19:36:47.207Z,100148.81
2023-02-02T19:39:25.855Z,100169.97
2023-02-02T19:42:00.393Z,100151.16
2023-02-02T19:44:34.461Z,100172.78
2023-02-02T19:47:21.142Z,100153.09
2023-02-02T19:49:53.547Z,100166.50
2023-02-02T19:52:26.713Z,100196.03
2023-02-02T19:54:58.702Z,100178.16
2023-02-02T19:57:42.177Z,100216.41
2023-02-02T20:00:22.696Z,100223.94
2023-02-02T20:02:54.655Z,100226.56
2023-02-02T20:05:38.787Z,100236.91
2023-02-02T20:08:33.653Z,100234.34
2023-02-02T20:11:33.327Z,100249.72
2023-02-02T20:14:21.854Z,100256.28
2023-02-02T20:17:06.935Z,100253.78
2023-02-02T20:19:42.062Z,100274.66
2023-02-02T20:22:28.904Z,100281.09
2023-02-02T20:25:08.464Z,100290.81
2023-02-02T20:27:40.427Z,100300.00
2023-02-02T20:30:23.039Z,100307.97
2023-02-02T20:32:58.410Z,100312.91
2023-02-02T20:35:42.033Z,100322.44
2023-02-02T20:38:28.883Z,100336.22
2023-02-02T20:41:00.795Z,100314.97
2023-02-02T20:43:33.162Z,100306.06
2023-02-02T20:46:05.168Z,100336.53
2023-02-02T20:48:37.167Z,100295.44
2023-02-02T20:51:09.082Z,100316.81
2023-02-02T20:53:41.377Z,100343.19
2023-02-02T20:56:13.326Z,100356.84
2023-02-02T20:58:45.317Z,100340.28
2023-02-02T21:01:19.516Z,100355.34
2023-02-02T21:03:51.433Z,100362.72
2023-02-02T21:06:23.432Z,100275.00
2023-02-02T21:08:55.472Z,100356.28
2023-02-02T21:11:27.385Z,100359.94
2023-02-02T21:14:00.310Z,100370.63
2023-02-02T21:16:32.431Z,100374.75
2023-02-02T21:19:04.467Z,100370.25
2023-02-02T21:21:36.721Z,100376.41
2023-02-02T21:24:08.904Z,100376.34
2023-02-02T21:26:40.979Z,100383.38
2023-02-02T21:29:12.916Z,100372.44
2023-02-02T21:31:45.525Z,100398.69
2023-02-02T21:34:21.138Z,100403.72
2023-02-02T21:36:58.487Z,100358.25
2023-02-02T21:39:36.787Z,100414.44
2023-02-02T21:42:08.815Z,100430.38
2023-02-02T21:44:53.985Z,100434.75
2023-02-02T21:47:36.685Z,100438.03
2023-02-02T21:50:24.454Z,100437.69
2023-02-02T21:53:14.186Z,100426.81
2023-02-02T21:55:58.811Z,100458.19
2023-02-02T21:58:38.641Z,100459.84
2023-02-02T22:01:16.853Z,100467.00
2023-02-02T22:03:50.629Z,100468.69
2023-02-02T22:06:29.112Z,100471.38
2023-02-02T22:09:14.345Z,100480.78
2023-02-02T22:12:06.061Z,100464.22
2023-02-02T22:14:42.918Z,100492.75
2023-02-02T22:17:17.422Z,100505.09
2023-02-02T22:20:17.675Z,100457.91
2023-02-02T22:22:51.692Z,100504.25
2023-02-02T22:25:31.415Z,100489.78
2023-02-02T22:28:19.949Z,100469.00
2023-02-02T22:30:53.506Z,100504.28
2023-02-02T22:33:26.992Z,100490.13
2023-02-02T22:35:58.947Z,100501.16
2023-02-02T22:38:30.802Z,100512.09
2023-02-02T22:41:02.805Z,100487.75
2023-02-02T22:43:34.747Z,100514.44
2023-02-02T22:46:06.911Z,100523.97
2023-02-02T22:48:38.923Z,100534.06
2023-02-02T22:51:10.839Z,100525.19
2023-02-02T22:53:42.770Z,100453.53
2023-02-02T22:56:15.851Z,100518.03
2023-02-02T22:58:47.811Z,100499.84
2023-02-02T23:01:19.811Z,100511.06
2023-02-02T23:03:51.911Z,100526.00
2023-02-02T23:06:23.852Z,100546.34
2023-02-02T23:08:55.799Z,100538.53
2023-02-02T23:11:27.713Z,100535.50
2023-02-02T23:13:59.670Z,100545.75
2023-02-02T23:16:31.793Z,100524.72
2023-02-02T23:19:03.795Z,100558.25
2023-02-02T23:21:35.686Z,100546.22
2023-02-02T23:24:08.038Z,100537.25
2023-02-02T23:26:39.941Z,100554.97
2023-02-02T23:29:11.871Z,100559.16
2023-02-02T23:31:46.007Z,100570.06
2023-02-02T23:34:17.920Z,100543.44
2023-02-02T23:36:49.853Z,100581.00
2023-02-02T23:39:21.768Z,100556.19
2023-02-02T23:41:53.674Z,100543.56
2023-02-02T23:44:25.628Z,100583.06
2023-02-02T23:46:58.130Z,100593.78
2023-02-02T23:49:32.358Z,100605.47
2023-02-02T23:52:04.505Z,100606.19
2023-02-02T23:54:37.177Z,100600.06
2023-02-02T23:57:09.293Z,100612.31
2023-02-02T23:59:41.302Z,100570.84
